Sunday, December 16, 2018, 11:41 AM GMT
Back to Local

CXMY, Malay Falls , N. S.

Location: , , Canada Lat: 44.983
Local Time: 11:41 AM GMT (11:41 GMT) Lon: -62.483
Time Zone: GMT Elev: 131 ft

Show me the last for .
Show Coded

Time T Td Feel RH Dir Speed Gust Alt SLP Vis Weather Sky Remarks
2018-12-16 11:00 24 21 - 89 - - - - - 0 None
2018-12-16 10:00 27 23 - 86 - - - - - 0 None
2018-12-16 09:00 29 24 - 82 - - - - - 0 None
2018-12-16 08:00 31 25 - 78 - - - - - 0 None
2018-12-16 07:00 32 26 - 77 - - - - - 0 None
2018-12-16 06:00 31 27 - 82 - - - - - 0 None
2018-12-16 05:00 27 26 - 94 - - - - - 0 None
2018-12-16 04:00 26 26 - 97 - - - - - 0 None
2018-12-16 03:00 29 27 - 91 - - - - - 0 None
2018-12-16 02:00 33 29 - 86 - - - - - 0 None
2018-12-16 01:00 34 31 - 86 - - - - - 0 None
2018-12-16 00:00 36 32 - 82 - - - - - 0 None
2018-12-15 23:00 36 30 - 79 - - - - - 0 None
2018-12-15 22:00 37 31 - 77 - - - - - 0 None
2018-12-15 21:00 39 31 - 72 - - - - - 0 None
2018-12-15 20:00 40 31 - 70 - - - - - 0 None
2018-12-15 19:00 42 33 - 69 - - - - - 0 None
2018-12-15 18:00 43 35 - 72 - - - - - 0 None
2018-12-15 17:00 44 35 - 70 - - - - - 0 None
2018-12-15 16:00 43 40 - 87 - - - - - 0 None
2018-12-15 15:00 44 40 - 87 - - - - - 0 None
2018-12-15 14:00 40 39 - 97 - - - - - 0 None
2018-12-15 13:00 40 39 - 98 - - - - - 0 None
2018-12-15 12:00 38 38 - 98 - - - - - 0 None

Support USWX by starting your Amazon purchase here.